createdAt,value
2022-10-28T00:49:47.861Z,7.80
2022-10-28T00:56:04.859Z,7.80
2022-10-28T00:58:31.908Z,8.40
2022-10-28T01:00:58.852Z,8.60
2022-10-28T01:03:25.901Z,8.80
2022-10-28T01:05:53.197Z,8.70
2022-10-28T01:08:20.202Z,9.20
2022-10-28T01:10:54.722Z,7.60
2022-10-28T01:13:33.953Z,9.30
2022-10-28T01:16:06.943Z,7.80
2022-10-28T01:18:41.465Z,9.00
2022-10-28T01:21:39.743Z,9.20
2022-10-28T01:24:12.986Z,8.90
2022-10-28T01:29:39.283Z,9.00
2022-10-28T01:32:20.564Z,7.70
2022-10-28T01:35:02.977Z,8.10
2022-10-28T01:37:36.166Z,7.80
2022-10-28T01:42:46.665Z,7.50
2022-10-28T01:45:30.519Z,7.40
2022-10-28T01:47:57.528Z,6.80
2022-10-28T01:51:14.054Z,6.30
2022-10-28T01:53:42.251Z,5.70
2022-10-28T01:56:14.073Z,6.20
2022-10-28T01:58:41.041Z,5.70
2022-10-28T02:01:08.314Z,6.40
2022-10-28T02:03:35.624Z,5.70
2022-10-28T02:06:07.491Z,5.50
2022-10-28T02:08:46.611Z,6.00
2022-10-28T02:11:22.872Z,6.60
2022-10-28T02:14:12.937Z,5.50
2022-10-28T02:16:52.607Z,5.60
2022-10-28T02:19:35.832Z,6.00
2022-10-28T02:22:23.666Z,6.20
2022-10-28T02:25:23.480Z,6.30
2022-10-28T02:35:44.234Z,6.90
2022-10-28T02:38:15.990Z,7.10
2022-10-28T02:40:43.068Z,7.30
2022-10-28T02:43:10.303Z,7.40
2022-10-28T02:45:45.083Z,7.00
2022-10-28T02:48:18.719Z,7.20
2022-10-28T02:50:52.126Z,8.30
2022-10-28T02:53:21.241Z,7.10
2022-10-28T02:55:52.867Z,6.90
2022-10-28T02:58:19.940Z,6.60
2022-10-28T03:00:47.303Z,6.70
2022-10-28T03:03:14.314Z,7.10
2022-10-28T03:05:41.463Z,7.10
2022-10-28T03:08:08.420Z,7.30
2022-10-28T03:10:35.453Z,7.50
2022-10-28T03:13:02.522Z,7.50
2022-10-28T03:15:29.608Z,8.50
2022-10-28T03:17:56.604Z,7.10
2022-10-28T03:20:23.744Z,7.60
2022-10-28T03:22:51.054Z,6.80
2022-10-28T03:25:18.396Z,7.20
2022-10-28T03:27:45.310Z,7.10
2022-10-28T03:30:12.345Z,7.20
2022-10-28T03:32:41.955Z,7.20
2022-10-28T03:35:09.227Z,7.00
2022-10-28T03:37:36.247Z,7.00
2022-10-28T03:40:07.934Z,7.00
2022-10-28T03:42:37.542Z,7.70
2022-10-28T03:45:08.654Z,6.30
2022-10-28T03:47:36.111Z,6.50
2022-10-28T03:50:03.266Z,7.00
2022-10-28T03:52:30.411Z,6.40
2022-10-28T03:54:57.340Z,6.70
2022-10-28T03:57:24.302Z,7.60
2022-10-28T03:59:51.452Z,7.00
2022-10-28T04:02:18.538Z,7.10
2022-10-28T04:04:45.786Z,7.30
2022-10-28T04:07:12.796Z,6.80
2022-10-28T04:09:39.777Z,8.00
2022-10-28T04:12:07.015Z,8.40
2022-10-28T04:14:34.143Z,8.50
2022-10-28T04:17:01.186Z,8.80
2022-10-28T04:19:28.263Z,9.70
2022-10-28T04:21:55.389Z,9.70
2022-10-28T04:24:22.431Z,8.50
2022-10-28T04:26:49.376Z,8.50
2022-10-28T04:29:16.475Z,8.40
2022-10-28T04:31:43.614Z,7.00
2022-10-28T04:34:11.847Z,7.10
2022-10-28T04:36:38.896Z,6.90
2022-10-28T04:39:05.955Z,7.30
2022-10-28T04:41:32.988Z,7.50
2022-10-28T04:44:00.149Z,7.40
2022-10-28T04:46:27.184Z,7.00
2022-10-28T04:48:54.131Z,6.60
2022-10-28T04:51:21.176Z,13.10
2022-10-28T04:53:48.224Z,13.00
2022-10-28T04:56:15.271Z,19.10
2022-10-28T04:58:42.176Z,15.10
2022-10-28T05:01:09.536Z,17.20
2022-10-28T05:03:36.926Z,20.30
2022-10-28T05:06:04.626Z,24.30
2022-10-28T05:08:31.635Z,25.30
2022-10-28T05:10:58.681Z,28.00
2022-10-28T05:13:25.726Z,30.50
2022-10-28T05:15:52.812Z,34.60
2022-10-28T05:18:19.821Z,31.30
2022-10-28T05:20:46.869Z,20.60
2022-10-28T05:23:14.017Z,14.60
2022-10-28T05:25:40.984Z,11.70
2022-10-28T05:28:08.014Z,13.00
2022-10-28T05:30:35.170Z,12.50
2022-10-28T05:33:02.679Z,11.40
2022-10-28T05:35:33.574Z,11.30
2022-10-28T05:38:01.142Z,10.70
2022-10-28T05:40:28.269Z,14.60
2022-10-28T05:42:55.454Z,15.80
2022-10-28T05:45:22.918Z,18.10
2022-10-28T05:47:50.035Z,18.20
2022-10-28T05:50:18.416Z,16.20
2022-10-28T05:52:58.148Z,14.50
2022-10-28T05:55:28.408Z,13.30
2022-10-28T05:57:56.285Z,11.40
2022-10-28T06:00:25.076Z,12.10
2022-10-28T06:02:52.667Z,13.20
2022-10-28T06:05:20.544Z,13.50
2022-10-28T06:07:47.692Z,14.80
2022-10-28T06:10:14.600Z,12.00
2022-10-28T06:12:40.457Z,11.10
2022-10-28T06:15:07.932Z,7.90
2022-10-28T06:17:35.067Z,7.10
2022-10-28T06:20:02.701Z,7.10
2022-10-28T06:22:29.784Z,6.60
2022-10-28T06:24:56.831Z,5.60
2022-10-28T06:27:23.880Z,6.60
2022-10-28T06:29:50.937Z,5.00
2022-10-28T06:32:18.124Z,6.50
2022-10-28T06:34:45.338Z,13.10
2022-10-28T06:37:13.037Z,11.40
2022-10-28T06:39:42.305Z,7.40
2022-10-28T06:42:09.356Z,6.20
2022-10-28T06:44:38.791Z,6.00
2022-10-28T06:47:07.318Z,5.90
2022-10-28T06:49:34.287Z,6.80
2022-10-28T06:52:01.314Z,6.90
2022-10-28T06:54:28.364Z,9.30
2022-10-28T06:56:55.426Z,8.60
2022-10-28T06:59:22.972Z,6.60
2022-10-28T07:01:50.194Z,6.90
2022-10-28T07:04:17.390Z,7.50
2022-10-28T07:06:46.384Z,7.00
2022-10-28T07:09:15.788Z,7.00
2022-10-28T07:11:45.180Z,7.50
2022-10-28T07:14:12.439Z,7.50
2022-10-28T07:16:39.584Z,7.10
2022-10-28T07:19:23.553Z,6.00
2022-10-28T07:22:14.707Z,6.60
2022-10-28T07:26:03.987Z,7.70
2022-10-28T07:28:38.505Z,6.30
2022-10-28T07:31:05.745Z,5.80
2022-10-28T07:33:32.939Z,6.20
2022-10-28T07:36:00.191Z,5.90
2022-10-28T07:38:27.442Z,6.00
2022-10-28T07:40:54.489Z,5.60
2022-10-28T07:43:21.547Z,6.00
2022-10-28T07:45:48.933Z,6.20
2022-10-28T07:48:16.319Z,7.20
2022-10-28T07:50:43.497Z,7.10
2022-10-28T07:53:10.724Z,6.90
2022-10-28T07:55:38.009Z,7.10
2022-10-28T07:58:05.147Z,8.00
2022-10-28T08:00:32.188Z,6.60
2022-10-28T08:02:59.232Z,6.20
2022-10-28T08:05:26.481Z,6.70
2022-10-28T08:07:53.947Z,7.10
2022-10-28T08:10:21.080Z,6.90
2022-10-28T08:12:48.146Z,6.60
2022-10-28T08:15:17.120Z,6.80
2022-10-28T08:17:44.152Z,7.70
2022-10-28T08:20:11.196Z,7.70
2022-10-28T08:22:38.548Z,8.50
2022-10-28T08:25:06.003Z,8.70
2022-10-28T08:27:33.049Z,8.10
2022-10-28T08:30:00.199Z,7.90
2022-10-28T08:32:27.484Z,8.10
2022-10-28T08:34:54.600Z,9.40
2022-10-28T08:37:21.914Z,10.00
2022-10-28T08:39:49.104Z,10.00
2022-10-28T08:42:34.923Z,9.70
2022-10-28T08:45:21.600Z,10.20
2022-10-28T08:48:06.696Z,9.90
2022-10-28T08:50:40.374Z,11.00
2022-10-28T08:53:18.809Z,9.60
2022-10-28T08:55:47.842Z,9.80
2022-10-28T08:58:22.997Z,9.20
2022-10-28T09:00:56.095Z,9.40
2022-10-28T09:03:25.111Z,10.10
2022-10-28T09:06:02.402Z,9.10
2022-10-28T09:08:30.678Z,8.70
2022-10-28T09:11:36.851Z,8.80
2022-10-28T09:14:13.030Z,8.30
2022-10-28T09:16:50.395Z,8.00
2022-10-28T09:19:39.246Z,7.70
2022-10-28T09:22:09.856Z,7.60
2022-10-28T09:24:53.510Z,7.30
2022-10-28T09:27:28.543Z,7.00
2022-10-28T09:30:27.130Z,5.60
2022-10-28T09:33:03.220Z,5.20
2022-10-28T09:35:32.352Z,5.80
2022-10-28T09:38:21.079Z,5.40
2022-10-28T09:41:24.751Z,5.30
2022-10-28T09:44:21.101Z,4.90
2022-10-28T09:46:49.274Z,5.00
2022-10-28T09:49:19.276Z,4.30
2022-10-28T09:52:04.854Z,4.60
2022-10-28T09:54:36.713Z,4.50
2022-10-28T09:57:06.645Z,4.50
2022-10-28T09:59:34.699Z,3.40
2022-10-28T10:02:03.893Z,3.70
2022-10-28T10:04:31.567Z,3.30
2022-10-28T10:07:00.147Z,4.00
2022-10-28T10:09:33.451Z,3.00
2022-10-28T10:12:10.548Z,3.20
2022-10-28T10:14:48.011Z,2.60
2022-10-28T10:17:19.407Z,2.50
2022-10-28T10:20:05.986Z,2.40
2022-10-28T10:22:37.926Z,2.40
2022-10-28T10:25:20.436Z,2.70
2022-10-28T10:28:14.928Z,2.50
2022-10-28T10:31:02.869Z,2.00
2022-10-28T10:33:40.154Z,1.90
2022-10-28T10:36:17.852Z,2.20
2022-10-28T10:38:54.220Z,1.80
2022-10-28T10:41:50.753Z,2.20
2022-10-28T10:44:20.890Z,2.50
2022-10-28T10:47:06.056Z,2.10
2022-10-28T10:49:34.835Z,1.90
2022-10-28T10:52:15.913Z,1.80
2022-10-28T10:54:45.723Z,1.90
2022-10-28T10:57:23.466Z,10.40
2022-10-28T10:59:54.975Z,22.70
2022-10-28T11:02:23.770Z,9.10
2022-10-28T11:04:57.213Z,5.40
2022-10-28T11:07:24.609Z,2.80
2022-10-28T11:09:51.786Z,2.90
2022-10-28T11:12:32.401Z,2.50
2022-10-28T11:15:01.211Z,2.00
2022-10-28T11:17:30.206Z,2.40
2022-10-28T11:19:59.106Z,2.90
2022-10-28T11:22:26.244Z,2.50
2022-10-28T11:25:26.879Z,2.40
2022-10-28T11:28:24.455Z,2.60
2022-10-28T11:30:56.598Z,2.60
2022-10-28T11:33:31.456Z,2.30
2022-10-28T11:36:41.188Z,2.00
2022-10-28T11:39:20.422Z,2.10
2022-10-28T11:42:24.025Z,2.10
2022-10-28T11:45:03.465Z,2.10
2022-10-28T11:48:05.843Z,1.50
2022-10-28T11:51:02.934Z,2.20
2022-10-28T11:54:07.234Z,6.70
2022-10-28T11:56:37.726Z,3.50
2022-10-28T11:59:09.804Z,2.10
2022-10-28T12:01:58.787Z,1.80
2022-10-28T12:04:39.159Z,1.20
2022-10-28T12:07:28.187Z,1.50
2022-10-28T12:09:58.314Z,1.30
2022-10-28T12:12:44.828Z,1.70
2022-10-28T12:15:22.506Z,1.00
2022-10-28T12:17:56.003Z,1.70
2022-10-28T12:20:34.828Z,1.80
2022-10-28T12:23:04.948Z,1.40
2022-10-28T12:25:34.759Z,1.40
2022-10-28T12:28:04.777Z,1.50
2022-10-28T12:30:33.461Z,1.80
2022-10-28T12:33:05.220Z,1.40
2022-10-28T12:35:37.383Z,1.70
2022-10-28T12:38:25.474Z,1.30
2022-10-28T12:41:10.725Z,1.20
2022-10-28T12:43:44.476Z,1.50
2022-10-28T12:46:25.272Z,1.50
2022-10-28T12:48:56.125Z,1.80
2022-10-28T12:51:31.671Z,1.40
2022-10-28T12:54:18.785Z,1.40
2022-10-28T12:56:58.319Z,0.90
2022-10-28T12:59:31.932Z,0.80
2022-10-28T13:02:02.200Z,1.10
2022-10-28T13:07:58.766Z,1.20
2022-10-28T13:11:06.297Z,1.70
2022-10-28T13:13:58.147Z,1.10
2022-10-28T13:16:41.659Z,0.70
2022-10-28T13:19:33.280Z,1.10
2022-10-28T13:22:23.247Z,1.10
2022-10-28T13:24:53.212Z,1.40
2022-10-28T13:27:23.148Z,1.80
2022-10-28T13:29:52.184Z,2.20
2022-10-28T13:32:39.710Z,1.80
2022-10-28T13:35:15.637Z,2.60
2022-10-28T13:37:45.078Z,2.00
2022-10-28T13:40:33.724Z,1.90
2022-10-28T13:43:01.078Z,5.40
2022-10-28T13:45:58.554Z,3.50
2022-10-28T13:48:30.092Z,3.50
2022-10-28T13:51:09.629Z,2.80
2022-10-28T13:53:45.997Z,3.50
2022-10-28T13:56:23.180Z,3.70
2022-10-28T13:58:53.198Z,4.00
2022-10-28T14:01:38.701Z,3.20
2022-10-28T14:04:06.055Z,3.60
2022-10-28T14:06:34.885Z,4.70
2022-10-28T14:09:02.995Z,4.60
2022-10-28T14:11:31.987Z,5.30
2022-10-28T14:14:00.194Z,5.90
2022-10-28T14:16:34.104Z,6.10
2022-10-28T14:21:44.453Z,4.80
2022-10-28T14:24:14.151Z,5.20
2022-10-28T14:27:20.009Z,5.70
2022-10-28T14:30:11.533Z,5.30
2022-10-28T14:32:40.419Z,5.30
2022-10-28T14:35:12.484Z,5.50
2022-10-28T14:38:18.751Z,6.10
2022-10-28T14:40:46.412Z,6.50
2022-10-28T14:43:30.930Z,6.80
2022-10-28T14:46:19.009Z,6.70
2022-10-28T14:48:52.779Z,8.60
2022-10-28T14:51:27.030Z,7.60
2022-10-28T14:53:58.440Z,8.40
2022-10-28T14:56:27.431Z,7.70
2022-10-28T14:58:59.026Z,7.70
2022-10-28T15:01:27.375Z,8.40
2022-10-28T15:04:00.698Z,8.80
2022-10-28T15:06:30.918Z,8.30
2022-10-28T15:09:20.814Z,9.80
2022-10-28T15:12:02.100Z,11.80
2022-10-28T15:14:45.831Z,10.90
2022-10-28T15:17:30.479Z,11.90
2022-10-28T15:19:59.267Z,11.80
2022-10-28T15:22:31.743Z,11.70
2022-10-28T15:25:00.231Z,11.00
2022-10-28T15:27:29.357Z,11.00
2022-10-28T15:29:56.262Z,10.70
2022-10-28T15:32:24.974Z,11.10
2022-10-28T15:34:52.097Z,12.50
2022-10-28T15:37:22.811Z,12.70
2022-10-28T15:39:51.906Z,13.70
2022-10-28T15:42:48.926Z,13.00
2022-10-28T15:45:22.903Z,13.40
2022-10-28T15:47:50.072Z,17.00
2022-10-28T15:50:16.993Z,15.30
2022-10-28T15:52:52.310Z,17.80
2022-10-28T15:55:21.761Z,17.00
2022-10-28T15:57:59.114Z,17.10
2022-10-28T16:00:32.611Z,21.50
2022-10-28T16:03:07.854Z,82.70
2022-10-28T16:05:35.157Z,102.60
2022-10-28T16:08:05.181Z,104.50
2022-10-28T16:10:37.902Z,101.60
2022-10-28T16:13:10.578Z,82.00
2022-10-28T16:15:44.923Z,78.60
2022-10-28T16:18:14.911Z,83.30
2022-10-28T16:20:44.932Z,94.50
2022-10-28T16:23:18.542Z,106.20
2022-10-28T16:25:47.385Z,81.50
2022-10-28T16:28:25.609Z,82.20
2022-10-28T16:30:57.087Z,93.00
2022-10-28T16:33:42.780Z,88.10
2022-10-28T16:36:10.238Z,86.00
2022-10-28T16:38:38.504Z,93.00
2022-10-28T16:41:06.403Z,69.60
2022-10-28T16:43:34.132Z,63.80
2022-10-28T16:46:01.586Z,62.30
2022-10-28T16:48:29.760Z,61.80
2022-10-28T16:51:01.830Z,59.30
2022-10-28T16:53:32.146Z,55.30
2022-10-28T16:55:59.611Z,59.50
2022-10-28T16:58:29.929Z,61.20
2022-10-28T17:00:57.503Z,60.60
2022-10-28T17:03:24.741Z,67.30
2022-10-28T17:05:52.089Z,81.30
2022-10-28T17:08:36.100Z,91.40
2022-10-28T17:11:06.461Z,103.30
2022-10-28T17:13:33.506Z,118.70
2022-10-28T17:16:00.879Z,116.10
2022-10-28T17:18:28.305Z,115.80
2022-10-28T17:21:18.720Z,108.90
2022-10-28T17:27:07.166Z,112.30
2022-10-28T17:30:30.740Z,117.70
2022-10-28T17:36:42.100Z,131.60
2022-10-28T17:39:13.617Z,139.90
2022-10-28T17:41:44.220Z,125.90
2022-10-28T17:44:11.535Z,205.20
2022-10-28T17:46:38.583Z,193.10
2022-10-28T17:49:08.191Z,171.20
2022-10-28T17:51:35.748Z,140.30
2022-10-28T17:54:06.280Z,126.30
2022-10-28T17:56:33.631Z,82.50
2022-10-28T17:59:01.339Z,82.80
2022-10-28T18:01:29.854Z,86.80
2022-10-28T18:03:57.538Z,72.10
2022-10-28T18:06:24.788Z,65.40
2022-10-28T18:08:52.865Z,64.60
2022-10-28T18:11:20.142Z,67.40
2022-10-28T18:13:53.030Z,62.70
2022-10-28T18:16:21.784Z,60.50
2022-10-28T18:18:51.186Z,59.60
2022-10-28T18:21:18.138Z,59.20
2022-10-28T18:23:50.195Z,56.40
2022-10-28T18:26:17.532Z,55.80
2022-10-28T18:28:45.313Z,58.00
2022-10-28T18:31:14.928Z,61.90
2022-10-28T18:33:42.586Z,61.10
2022-10-28T18:36:11.370Z,61.20
2022-10-28T18:38:38.963Z,58.20
2022-10-28T18:41:18.879Z,59.60
2022-10-28T18:43:46.132Z,57.70
2022-10-28T18:46:13.291Z,57.00
2022-10-28T18:48:40.634Z,55.90
2022-10-28T18:51:10.568Z,52.10
2022-10-28T18:53:40.577Z,51.50
2022-10-28T18:56:12.648Z,51.80
2022-10-28T18:58:40.191Z,50.80
2022-10-28T19:01:12.560Z,47.70
2022-10-28T19:03:40.032Z,46.90
2022-10-28T19:06:08.846Z,46.50
2022-10-28T19:08:36.275Z,46.10
2022-10-28T19:11:03.522Z,41.10
2022-10-28T19:13:38.045Z,43.00
2022-10-28T19:16:07.205Z,48.50
2022-10-28T19:18:37.769Z,51.10
2022-10-28T19:21:09.538Z,48.10
2022-10-28T19:23:42.034Z,51.50
2022-10-28T19:26:10.184Z,53.10
2022-10-28T19:28:45.614Z,49.70
2022-10-28T19:31:17.883Z,49.10
2022-10-28T19:33:45.392Z,50.20
2022-10-28T19:36:18.429Z,50.50
2022-10-28T19:38:48.035Z,54.70
2022-10-28T19:41:19.792Z,52.40
2022-10-28T19:43:47.404Z,49.60
2022-10-28T19:46:17.372Z,47.00
2022-10-28T19:48:50.257Z,48.30
2022-10-28T19:51:19.164Z,45.30
2022-10-28T19:53:53.878Z,47.00
2022-10-28T19:56:22.147Z,45.80
2022-10-28T19:58:52.887Z,44.30
2022-10-28T20:01:21.043Z,46.60
2022-10-28T20:03:51.379Z,42.10
2022-10-28T20:06:19.736Z,41.60
2022-10-28T20:08:47.548Z,42.50
2022-10-28T20:11:23.098Z,42.50
2022-10-28T20:14:00.288Z,42.90
2022-10-28T20:18:55.371Z,42.80
2022-10-28T20:21:24.392Z,46.20
2022-10-28T20:23:55.820Z,46.70
2022-10-28T20:26:31.290Z,45.70
2022-10-28T20:28:58.729Z,43.70
2022-10-28T20:31:26.907Z,44.60
2022-10-28T20:33:58.450Z,44.90
2022-10-28T20:36:28.007Z,44.80
2022-10-28T20:39:08.456Z,45.90
2022-10-28T20:41:37.319Z,48.60
2022-10-28T20:44:05.076Z,46.40
2022-10-28T20:46:32.516Z,46.00
2022-10-28T20:56:47.432Z,46.90
2022-10-28T20:59:14.585Z,43.30
2022-10-28T21:01:41.887Z,43.50
2022-10-28T21:04:10.321Z,45.00
2022-10-28T21:06:38.197Z,44.50
2022-10-28T21:09:05.488Z,43.40
2022-10-28T21:11:32.665Z,44.70
2022-10-28T21:14:00.653Z,44.90
2022-10-28T21:16:27.924Z,44.80
2022-10-28T21:18:55.062Z,43.50
2022-10-28T21:21:22.741Z,43.30
2022-10-28T21:23:50.183Z,43.30
2022-10-28T21:26:17.437Z,45.40
2022-10-28T21:28:45.248Z,46.20
2022-10-28T21:31:13.879Z,45.90
2022-10-28T21:33:41.394Z,48.40
2022-10-28T21:36:11.361Z,48.20
2022-10-28T21:38:38.292Z,44.80
2022-10-28T21:41:16.225Z,46.10
2022-10-28T21:43:44.471Z,43.50
2022-10-28T21:46:11.543Z,40.50
2022-10-28T21:48:38.895Z,39.80
2022-10-28T21:51:10.167Z,37.10
2022-10-28T21:53:42.405Z,39.40
2022-10-28T21:56:18.810Z,39.60
2022-10-28T21:58:47.579Z,39.90
2022-10-28T22:01:20.062Z,40.70
2022-10-28T22:03:47.486Z,41.40
2022-10-28T22:06:17.409Z,42.20
2022-10-28T22:08:44.537Z,41.20
2022-10-28T22:11:14.208Z,43.50
2022-10-28T22:13:41.196Z,45.50
2022-10-28T22:16:11.047Z,42.70
2022-10-28T22:18:38.473Z,44.40
2022-10-28T22:21:06.941Z,41.90
2022-10-28T22:23:33.997Z,39.70
2022-10-28T22:26:04.948Z,39.30
2022-10-28T22:28:32.330Z,38.30
2022-10-28T22:31:04.373Z,41.80
2022-10-28T22:33:31.475Z,41.30
2022-10-28T22:36:02.988Z,42.60
2022-10-28T22:38:29.995Z,40.90
2022-10-28T22:41:18.183Z,40.90
2022-10-28T22:43:46.614Z,38.00
2022-10-28T22:46:15.221Z,34.40
2022-10-28T22:48:42.200Z,33.90
2022-10-28T22:51:12.071Z,30.40
2022-10-28T22:53:39.171Z,34.00
2022-10-28T22:56:07.030Z,32.50
2022-10-28T22:58:33.954Z,32.10
2022-10-28T23:01:14.266Z,30.10
2022-10-28T23:03:42.949Z,29.90
2022-10-28T23:06:10.235Z,26.20
2022-10-28T23:08:38.184Z,27.50
2022-10-28T23:11:05.360Z,26.20
2022-10-28T23:13:32.628Z,26.70
2022-10-28T23:16:04.091Z,26.40
2022-10-28T23:18:31.059Z,25.50
2022-10-28T23:21:03.698Z,26.20
2022-10-28T23:23:30.603Z,26.80
2022-10-28T23:25:57.453Z,25.20
2022-10-28T23:28:24.669Z,23.30
2022-10-28T23:30:51.538Z,24.20
2022-10-28T23:33:18.403Z,23.10
2022-10-28T23:35:45.468Z,24.30
2022-10-28T23:38:16.506Z,22.70
2022-10-28T23:40:43.414Z,23.10
2022-10-28T23:43:10.353Z,23.80
2022-10-28T23:45:37.251Z,23.00
2022-10-28T23:48:04.226Z,20.80
2022-10-28T23:50:31.150Z,21.60
2022-10-28T23:52:58.366Z,21.50
2022-10-28T23:55:25.550Z,22.60
2022-10-28T23:57:52.864Z,21.40
